sensor_id;sensor_type;location;lat;lon;timestamp;P1;durP1;ratioP1;P2;durP2;ratioP2
2031;SDS011;27625;50.422;7.944;2023-10-09T00:01:50;4.23;;;2.20;;
2031;SDS011;27625;50.422;7.944;2023-10-09T00:04:20;6.23;;;2.50;;
2031;SDS011;27625;50.422;7.944;2023-10-09T00:06:49;4.40;;;2.40;;
2031;SDS011;27625;50.422;7.944;2023-10-09T00:09:18;4.07;;;2.30;;
2031;SDS011;27625;50.422;7.944;2023-10-09T00:11:56;6.00;;;3.00;;
2031;SDS011;27625;50.422;7.944;2023-10-09T00:14:24;3.37;;;2.23;;
2031;SDS011;27625;50.422;7.944;2023-10-09T00:16:51;6.50;;;2.60;;
2031;SDS011;27625;50.422;7.944;2023-10-09T00:19:32;9.30;;;2.47;;
2031;SDS011;27625;50.422;7.944;2023-10-09T00:22:00;7.83;;;3.40;;
2031;SDS011;27625;50.422;7.944;2023-10-09T00:24:39;3.90;;;2.23;;
2031;SDS011;27625;50.422;7.944;2023-10-09T00:27:11;6.07;;;2.77;;
2031;SDS011;27625;50.422;7.944;2023-10-09T00:29:38;5.63;;;2.87;;
2031;SDS011;27625;50.422;7.944;2023-10-09T00:32:13;9.37;;;4.63;;
2031;SDS011;27625;50.422;7.944;2023-10-09T00:34:42;6.50;;;2.60;;
2031;SDS011;27625;50.422;7.944;2023-10-09T00:37:09;5.33;;;2.53;;
2031;SDS011;27625;50.422;7.944;2023-10-09T00:39:42;6.53;;;2.30;;
2031;SDS011;27625;50.422;7.944;2023-10-09T00:42:09;4.67;;;3.00;;
2031;SDS011;27625;50.422;7.944;2023-10-09T00:44:39;5.10;;;2.73;;
2031;SDS011;27625;50.422;7.944;2023-10-09T00:47:08;7.07;;;3.00;;
2031;SDS011;27625;50.422;7.944;2023-10-09T00:49:57;7.27;;;3.20;;
2031;SDS011;27625;50.422;7.944;2023-10-09T00:52:27;6.77;;;2.90;;
2031;SDS011;27625;50.422;7.944;2023-10-09T00:55:02;4.73;;;2.60;;
2031;SDS011;27625;50.422;7.944;2023-10-09T00:57:38;7.20;;;3.20;;
2031;SDS011;27625;50.422;7.944;2023-10-09T01:00:07;5.77;;;3.70;;
2031;SDS011;27625;50.422;7.944;2023-10-09T01:02:49;3.77;;;2.30;;
2031;SDS011;27625;50.422;7.944;2023-10-09T01:05:38;5.47;;;2.77;;
2031;SDS011;27625;50.422;7.944;2023-10-09T01:08:11;4.20;;;2.87;;
2031;SDS011;27625;50.422;7.944;2023-10-09T01:10:50;5.10;;;3.13;;
2031;SDS011;27625;50.422;7.944;2023-10-09T01:13:23;6.67;;;3.17;;
2031;SDS011;27625;50.422;7.944;2023-10-09T01:16:08;6.30;;;3.10;;
2031;SDS011;27625;50.422;7.944;2023-10-09T01:18:41;3.80;;;2.67;;
2031;SDS011;27625;50.422;7.944;2023-10-09T01:23:41;5.50;;;2.70;;
2031;SDS011;27625;50.422;7.944;2023-10-09T01:26:30;7.60;;;3.20;;
2031;SDS011;27625;50.422;7.944;2023-10-09T01:29:04;6.47;;;3.50;;
2031;SDS011;27625;50.422;7.944;2023-10-09T01:31:35;4.77;;;3.10;;
2031;SDS011;27625;50.422;7.944;2023-10-09T01:34:02;4.67;;;3.10;;
2031;SDS011;27625;50.422;7.944;2023-10-09T01:36:36;4.87;;;2.70;;
2031;SDS011;27625;50.422;7.944;2023-10-09T01:39:07;4.83;;;3.10;;
2031;SDS011;27625;50.422;7.944;2023-10-09T01:41:46;6.27;;;3.23;;
2031;SDS011;27625;50.422;7.944;2023-10-09T01:44:15;7.40;;;3.43;;
2031;SDS011;27625;50.422;7.944;2023-10-09T01:46:41;9.53;;;3.83;;
2031;SDS011;27625;50.422;7.944;2023-10-09T01:49:11;4.20;;;2.63;;
2031;SDS011;27625;50.422;7.944;2023-10-09T01:51:44;6.60;;;3.23;;
2031;SDS011;27625;50.422;7.944;2023-10-09T01:54:13;7.60;;;3.50;;
2031;SDS011;27625;50.422;7.944;2023-10-09T01:56:59;7.30;;;3.17;;
2031;SDS011;27625;50.422;7.944;2023-10-09T01:59:30;4.83;;;2.70;;
2031;SDS011;27625;50.422;7.944;2023-10-09T02:01:58;5.30;;;3.10;;
2031;SDS011;27625;50.422;7.944;2023-10-09T02:04:26;6.30;;;3.10;;
2031;SDS011;27625;50.422;7.944;2023-10-09T02:06:55;5.97;;;3.43;;
2031;SDS011;27625;50.422;7.944;2023-10-09T02:09:23;6.63;;;3.57;;
2031;SDS011;27625;50.422;7.944;2023-10-09T02:11:57;6.17;;;2.90;;
2031;SDS011;27625;50.422;7.944;2023-10-09T02:14:26;5.97;;;3.30;;
2031;SDS011;27625;50.422;7.944;2023-10-09T02:16:53;4.93;;;2.90;;
2031;SDS011;27625;50.422;7.944;2023-10-09T02:19:32;7.40;;;3.50;;
2031;SDS011;27625;50.422;7.944;2023-10-09T02:22:00;5.10;;;3.00;;
2031;SDS011;27625;50.422;7.944;2023-10-09T02:24:40;12.27;;;3.73;;
2031;SDS011;27625;50.422;7.944;2023-10-09T02:27:23;5.57;;;3.70;;
2031;SDS011;27625;50.422;7.944;2023-10-09T02:30:04;8.47;;;3.53;;
2031;SDS011;27625;50.422;7.944;2023-10-09T02:32:42;6.67;;;3.23;;
2031;SDS011;27625;50.422;7.944;2023-10-09T02:35:10;7.77;;;3.47;;
2031;SDS011;27625;50.422;7.944;2023-10-09T02:37:49;6.53;;;4.17;;
2031;SDS011;27625;50.422;7.944;2023-10-09T02:40:19;10.27;;;3.50;;
2031;SDS011;27625;50.422;7.944;2023-10-09T02:42:51;4.90;;;3.33;;
2031;SDS011;27625;50.422;7.944;2023-10-09T02:45:21;6.40;;;4.13;;
2031;SDS011;27625;50.422;7.944;2023-10-09T02:47:54;5.87;;;4.10;;
2031;SDS011;27625;50.422;7.944;2023-10-09T02:50:21;5.50;;;3.57;;
2031;SDS011;27625;50.422;7.944;2023-10-09T02:52:53;6.73;;;3.40;;
2031;SDS011;27625;50.422;7.944;2023-10-09T02:55:30;6.70;;;3.87;;
2031;SDS011;27625;50.422;7.944;2023-10-09T03:00:47;5.90;;;3.80;;
2031;SDS011;27625;50.422;7.944;2023-10-09T03:03:14;6.67;;;4.00;;
2031;SDS011;27625;50.422;7.944;2023-10-09T03:05:44;6.13;;;4.90;;
2031;SDS011;27625;50.422;7.944;2023-10-09T03:08:12;5.47;;;4.00;;
2031;SDS011;27625;50.422;7.944;2023-10-09T03:10:40;6.30;;;4.10;;
2031;SDS011;27625;50.422;7.944;2023-10-09T03:13:08;12.33;;;4.57;;
2031;SDS011;27625;50.422;7.944;2023-10-09T03:15:36;8.30;;;4.27;;
2031;SDS011;27625;50.422;7.944;2023-10-09T03:18:05;7.20;;;3.77;;
2031;SDS011;27625;50.422;7.944;2023-10-09T03:20:33;8.57;;;4.40;;
2031;SDS011;27625;50.422;7.944;2023-10-09T03:23:03;7.07;;;4.30;;
2031;SDS011;27625;50.422;7.944;2023-10-09T03:25:37;7.80;;;4.47;;
2031;SDS011;27625;50.422;7.944;2023-10-09T03:28:07;5.00;;;3.23;;
2031;SDS011;27625;50.422;7.944;2023-10-09T03:30:34;7.17;;;4.37;;
2031;SDS011;27625;50.422;7.944;2023-10-09T03:33:02;7.57;;;3.73;;
2031;SDS011;27625;50.422;7.944;2023-10-09T03:35:32;6.23;;;3.90;;
2031;SDS011;27625;50.422;7.944;2023-10-09T03:37:59;5.30;;;3.53;;
2031;SDS011;27625;50.422;7.944;2023-10-09T03:40:37;4.47;;;3.17;;
2031;SDS011;27625;50.422;7.944;2023-10-09T03:43:14;6.10;;;3.97;;
2031;SDS011;27625;50.422;7.944;2023-10-09T03:45:41;8.23;;;3.90;;
2031;SDS011;27625;50.422;7.944;2023-10-09T03:48:14;8.63;;;4.13;;
2031;SDS011;27625;50.422;7.944;2023-10-09T03:50:48;8.37;;;4.37;;
2031;SDS011;27625;50.422;7.944;2023-10-09T03:53:24;6.77;;;4.40;;
2031;SDS011;27625;50.422;7.944;2023-10-09T03:55:51;9.17;;;4.50;;
2031;SDS011;27625;50.422;7.944;2023-10-09T03:58:19;5.30;;;4.40;;
2031;SDS011;27625;50.422;7.944;2023-10-09T04:00:51;7.43;;;3.93;;
2031;SDS011;27625;50.422;7.944;2023-10-09T04:03:18;7.50;;;4.50;;
2031;SDS011;27625;50.422;7.944;2023-10-09T04:05:46;8.07;;;4.40;;
2031;SDS011;27625;50.422;7.944;2023-10-09T04:08:16;7.53;;;4.77;;
2031;SDS011;27625;50.422;7.944;2023-10-09T04:10:45;7.23;;;4.87;;
2031;SDS011;27625;50.422;7.944;2023-10-09T04:13:17;6.53;;;4.10;;
2031;SDS011;27625;50.422;7.944;2023-10-09T04:15:50;7.97;;;4.73;;
2031;SDS011;27625;50.422;7.944;2023-10-09T04:18:21;7.77;;;3.90;;
2031;SDS011;27625;50.422;7.944;2023-10-09T04:20:58;9.03;;;4.70;;
2031;SDS011;27625;50.422;7.944;2023-10-09T04:23:47;7.27;;;4.47;;
2031;SDS011;27625;50.422;7.944;2023-10-09T04:26:46;7.20;;;4.87;;
2031;SDS011;27625;50.422;7.944;2023-10-09T04:29:15;6.70;;;4.60;;
2031;SDS011;27625;50.422;7.944;2023-10-09T04:31:52;7.50;;;4.40;;
2031;SDS011;27625;50.422;7.944;2023-10-09T04:34:27;9.47;;;5.23;;
2031;SDS011;27625;50.422;7.944;2023-10-09T04:37:03;6.80;;;4.50;;
2031;SDS011;27625;50.422;7.944;2023-10-09T04:39:50;11.37;;;5.50;;
2031;SDS011;27625;50.422;7.944;2023-10-09T04:42:27;6.67;;;4.70;;
2031;SDS011;27625;50.422;7.944;2023-10-09T04:45:05;7.70;;;4.90;;
2031;SDS011;27625;50.422;7.944;2023-10-09T04:47:49;12.07;;;5.93;;
2031;SDS011;27625;50.422;7.944;2023-10-09T04:50:23;7.13;;;4.53;;
2031;SDS011;27625;50.422;7.944;2023-10-09T04:55:57;7.37;;;5.20;;
2031;SDS011;27625;50.422;7.944;2023-10-09T04:58:23;11.40;;;4.60;;
2031;SDS011;27625;50.422;7.944;2023-10-09T05:00:54;7.30;;;4.73;;
2031;SDS011;27625;50.422;7.944;2023-10-09T05:03:40;9.20;;;5.00;;
2031;SDS011;27625;50.422;7.944;2023-10-09T05:06:10;8.03;;;4.53;;
2031;SDS011;27625;50.422;7.944;2023-10-09T05:08:55;9.00;;;5.57;;
2031;SDS011;27625;50.422;7.944;2023-10-09T05:11:39;7.97;;;5.00;;
2031;SDS011;27625;50.422;7.944;2023-10-09T05:14:40;7.30;;;4.80;;
2031;SDS011;27625;50.422;7.944;2023-10-09T05:17:27;8.90;;;4.97;;
2031;SDS011;27625;50.422;7.944;2023-10-09T05:20:02;9.47;;;5.80;;
2031;SDS011;27625;50.422;7.944;2023-10-09T05:22:48;11.00;;;4.93;;
2031;SDS011;27625;50.422;7.944;2023-10-09T05:25:25;8.00;;;4.70;;
2031;SDS011;27625;50.422;7.944;2023-10-09T05:28:12;8.70;;;4.90;;
2031;SDS011;27625;50.422;7.944;2023-10-09T05:30:58;11.50;;;5.97;;
2031;SDS011;27625;50.422;7.944;2023-10-09T05:33:35;7.90;;;4.73;;
2031;SDS011;27625;50.422;7.944;2023-10-09T05:36:04;8.67;;;5.70;;
2031;SDS011;27625;50.422;7.944;2023-10-09T05:38:43;10.30;;;6.10;;
2031;SDS011;27625;50.422;7.944;2023-10-09T05:41:24;8.37;;;5.50;;
2031;SDS011;27625;50.422;7.944;2023-10-09T05:44:18;12.77;;;6.13;;
2031;SDS011;27625;50.422;7.944;2023-10-09T05:47:03;10.13;;;6.80;;
2031;SDS011;27625;50.422;7.944;2023-10-09T05:49:45;11.03;;;7.30;;
2031;SDS011;27625;50.422;7.944;2023-10-09T05:52:21;10.90;;;6.83;;
2031;SDS011;27625;50.422;7.944;2023-10-09T05:54:57;9.10;;;6.20;;
2031;SDS011;27625;50.422;7.944;2023-10-09T05:57:47;8.40;;;5.80;;
2031;SDS011;27625;50.422;7.944;2023-10-09T06:00:37;8.67;;;5.70;;
2031;SDS011;27625;50.422;7.944;2023-10-09T06:03:22;8.90;;;5.33;;
2031;SDS011;27625;50.422;7.944;2023-10-09T06:06:11;9.40;;;5.90;;
2031;SDS011;27625;50.422;7.944;2023-10-09T06:08:59;8.67;;;6.37;;
2031;SDS011;27625;50.422;7.944;2023-10-09T06:11:54;11.20;;;5.13;;
2031;SDS011;27625;50.422;7.944;2023-10-09T06:14:41;9.63;;;5.37;;
2031;SDS011;27625;50.422;7.944;2023-10-09T06:17:31;6.83;;;4.43;;
2031;SDS011;27625;50.422;7.944;2023-10-09T06:20:11;7.33;;;5.53;;
2031;SDS011;27625;50.422;7.944;2023-10-09T06:22:53;7.23;;;4.90;;
2031;SDS011;27625;50.422;7.944;2023-10-09T06:25:23;9.40;;;5.53;;
2031;SDS011;27625;50.422;7.944;2023-10-09T06:27:58;10.23;;;6.07;;
2031;SDS011;27625;50.422;7.944;2023-10-09T06:30:25;8.60;;;5.20;;
2031;SDS011;27625;50.422;7.944;2023-10-09T06:32:56;9.40;;;5.17;;
2031;SDS011;27625;50.422;7.944;2023-10-09T06:35:46;6.87;;;4.73;;
2031;SDS011;27625;50.422;7.944;2023-10-09T06:38:28;7.47;;;4.87;;
2031;SDS011;27625;50.422;7.944;2023-10-09T06:41:05;7.23;;;4.80;;
2031;SDS011;27625;50.422;7.944;2023-10-09T06:44:01;6.80;;;4.53;;
2031;SDS011;27625;50.422;7.944;2023-10-09T06:46:31;6.80;;;4.40;;
2031;SDS011;27625;50.422;7.944;2023-10-09T06:49:09;9.50;;;4.10;;
2031;SDS011;27625;50.422;7.944;2023-10-09T06:51:57;6.70;;;4.17;;
2031;SDS011;27625;50.422;7.944;2023-10-09T06:54:36;10.67;;;5.93;;
2031;SDS011;27625;50.422;7.944;2023-10-09T06:57:09;8.73;;;4.67;;
2031;SDS011;27625;50.422;7.944;2023-10-09T07:00:04;7.23;;;4.10;;
2031;SDS011;27625;50.422;7.944;2023-10-09T07:02:54;7.93;;;4.30;;
2031;SDS011;27625;50.422;7.944;2023-10-09T07:05:23;6.73;;;4.80;;
2031;SDS011;27625;50.422;7.944;2023-10-09T07:07:56;11.83;;;5.67;;
2031;SDS011;27625;50.422;7.944;2023-10-09T07:13:28;7.47;;;4.87;;
2031;SDS011;27625;50.422;7.944;2023-10-09T07:15:56;6.97;;;4.47;;
2031;SDS011;27625;50.422;7.944;2023-10-09T07:18:46;8.23;;;4.90;;
2031;SDS011;27625;50.422;7.944;2023-10-09T07:21:25;9.27;;;5.20;;
2031;SDS011;27625;50.422;7.944;2023-10-09T07:23:55;6.50;;;4.50;;
2031;SDS011;27625;50.422;7.944;2023-10-09T07:26:27;9.97;;;5.00;;
2031;SDS011;27625;50.422;7.944;2023-10-09T07:29:03;7.40;;;4.63;;
2031;SDS011;27625;50.422;7.944;2023-10-09T07:31:49;6.40;;;4.50;;
2031;SDS011;27625;50.422;7.944;2023-10-09T07:34:24;8.37;;;4.50;;
2031;SDS011;27625;50.422;7.944;2023-10-09T07:36:58;9.97;;;4.40;;
2031;SDS011;27625;50.422;7.944;2023-10-09T07:39:32;6.33;;;4.33;;
2031;SDS011;27625;50.422;7.944;2023-10-09T07:42:04;14.37;;;4.30;;
2031;SDS011;27625;50.422;7.944;2023-10-09T07:44:44;8.63;;;4.27;;
2031;SDS011;27625;50.422;7.944;2023-10-09T07:47:19;12.00;;;4.50;;
2031;SDS011;27625;50.422;7.944;2023-10-09T07:49:49;8.30;;;4.80;;
2031;SDS011;27625;50.422;7.944;2023-10-09T07:52:20;9.10;;;4.50;;
2031;SDS011;27625;50.422;7.944;2023-10-09T07:54:48;9.57;;;4.07;;
2031;SDS011;27625;50.422;7.944;2023-10-09T07:57:30;7.97;;;4.43;;
2031;SDS011;27625;50.422;7.944;2023-10-09T08:00:04;5.67;;;3.87;;
2031;SDS011;27625;50.422;7.944;2023-10-09T08:03:00;7.37;;;4.30;;
2031;SDS011;27625;50.422;7.944;2023-10-09T08:05:28;6.87;;;3.90;;
2031;SDS011;27625;50.422;7.944;2023-10-09T08:08:00;7.10;;;4.30;;
2031;SDS011;27625;50.422;7.944;2023-10-09T08:10:41;9.10;;;4.67;;
2031;SDS011;27625;50.422;7.944;2023-10-09T08:13:27;8.07;;;4.70;;
2031;SDS011;27625;50.422;7.944;2023-10-09T08:16:13;5.57;;;3.43;;
2031;SDS011;27625;50.422;7.944;2023-10-09T08:18:49;8.27;;;4.20;;
2031;SDS011;27625;50.422;7.944;2023-10-09T08:21:16;6.93;;;4.63;;
2031;SDS011;27625;50.422;7.944;2023-10-09T08:23:47;9.67;;;5.10;;
2031;SDS011;27625;50.422;7.944;2023-10-09T08:26:19;7.50;;;4.27;;
2031;SDS011;27625;50.422;7.944;2023-10-09T08:28:56;7.13;;;5.10;;
2031;SDS011;27625;50.422;7.944;2023-10-09T08:31:41;7.23;;;4.60;;
2031;SDS011;27625;50.422;7.944;2023-10-09T08:34:11;5.70;;;3.77;;
2031;SDS011;27625;50.422;7.944;2023-10-09T08:36:49;6.20;;;4.00;;
2031;SDS011;27625;50.422;7.944;2023-10-09T08:39:20;6.40;;;3.67;;
2031;SDS011;27625;50.422;7.944;2023-10-09T08:41:56;6.40;;;4.00;;
2031;SDS011;27625;50.422;7.944;2023-10-09T08:44:29;6.87;;;3.90;;
2031;SDS011;27625;50.422;7.944;2023-10-09T08:46:57;7.60;;;4.07;;
2031;SDS011;27625;50.422;7.944;2023-10-09T08:49:25;7.97;;;4.57;;
2031;SDS011;27625;50.422;7.944;2023-10-09T08:51:52;9.40;;;4.67;;
2031;SDS011;27625;50.422;7.944;2023-10-09T08:54:19;7.10;;;4.50;;
2031;SDS011;27625;50.422;7.944;2023-10-09T08:56:47;6.73;;;4.10;;
2031;SDS011;27625;50.422;7.944;2023-10-09T08:59:17;8.30;;;3.80;;
2031;SDS011;27625;50.422;7.944;2023-10-09T09:01:47;13.23;;;4.20;;
2031;SDS011;27625;50.422;7.944;2023-10-09T09:04:38;7.17;;;4.60;;
2031;SDS011;27625;50.422;7.944;2023-10-09T09:07:05;8.30;;;3.67;;
2031;SDS011;27625;50.422;7.944;2023-10-09T09:09:33;7.83;;;4.47;;
2031;SDS011;27625;50.422;7.944;2023-10-09T09:12:00;5.77;;;4.00;;
2031;SDS011;27625;50.422;7.944;2023-10-09T09:14:37;5.93;;;4.50;;
2031;SDS011;27625;50.422;7.944;2023-10-09T09:17:05;6.07;;;3.77;;
2031;SDS011;27625;50.422;7.944;2023-10-09T09:19:36;8.47;;;4.03;;
2031;SDS011;27625;50.422;7.944;2023-10-09T09:22:03;5.87;;;3.50;;
2031;SDS011;27625;50.422;7.944;2023-10-09T09:24:38;9.50;;;4.10;;
2031;SDS011;27625;50.422;7.944;2023-10-09T09:27:10;11.93;;;3.90;;
2031;SDS011;27625;50.422;7.944;2023-10-09T09:29:43;6.47;;;3.90;;
2031;SDS011;27625;50.422;7.944;2023-10-09T09:32:25;7.07;;;3.90;;
2031;SDS011;27625;50.422;7.944;2023-10-09T09:34:55;7.33;;;3.87;;
2031;SDS011;27625;50.422;7.944;2023-10-09T09:37:25;9.63;;;4.40;;
2031;SDS011;27625;50.422;7.944;2023-10-09T09:39:57;6.80;;;3.33;;
2031;SDS011;27625;50.422;7.944;2023-10-09T09:42:26;6.07;;;3.50;;
2031;SDS011;27625;50.422;7.944;2023-10-09T09:44:56;6.93;;;3.83;;
2031;SDS011;27625;50.422;7.944;2023-10-09T09:47:28;6.70;;;3.80;;
2031;SDS011;27625;50.422;7.944;2023-10-09T09:49:56;6.90;;;4.40;;
2031;SDS011;27625;50.422;7.944;2023-10-09T09:52:30;9.13;;;3.40;;
2031;SDS011;27625;50.422;7.944;2023-10-09T09:55:05;8.90;;;4.20;;
2031;SDS011;27625;50.422;7.944;2023-10-09T09:57:41;5.73;;;3.23;;
2031;SDS011;27625;50.422;7.944;2023-10-09T10:00:11;7.00;;;4.10;;
2031;SDS011;27625;50.422;7.944;2023-10-09T10:02:55;6.17;;;3.50;;
2031;SDS011;27625;50.422;7.944;2023-10-09T10:05:26;7.47;;;4.10;;
2031;SDS011;27625;50.422;7.944;2023-10-09T10:07:55;6.73;;;3.77;;
2031;SDS011;27625;50.422;7.944;2023-10-09T10:10:34;7.60;;;3.73;;
2031;SDS011;27625;50.422;7.944;2023-10-09T10:13:04;5.97;;;3.53;;
2031;SDS011;27625;50.422;7.944;2023-10-09T10:18:51;6.77;;;3.60;;
2031;SDS011;27625;50.422;7.944;2023-10-09T10:21:19;6.47;;;3.47;;
2031;SDS011;27625;50.422;7.944;2023-10-09T10:23:58;6.23;;;3.30;;
2031;SDS011;27625;50.422;7.944;2023-10-09T10:26:35;8.17;;;4.07;;
2031;SDS011;27625;50.422;7.944;2023-10-09T10:29:15;5.50;;;3.17;;
2031;SDS011;27625;50.422;7.944;2023-10-09T10:31:53;9.27;;;5.17;;
2031;SDS011;27625;50.422;7.944;2023-10-09T10:34:22;8.93;;;4.13;;
2031;SDS011;27625;50.422;7.944;2023-10-09T10:36:50;6.33;;;3.87;;
2031;SDS011;27625;50.422;7.944;2023-10-09T10:39:27;7.73;;;4.50;;
2031;SDS011;27625;50.422;7.944;2023-10-09T10:42:23;7.80;;;4.10;;
2031;SDS011;27625;50.422;7.944;2023-10-09T10:45:00;5.83;;;3.37;;
2031;SDS011;27625;50.422;7.944;2023-10-09T10:47:28;7.27;;;3.33;;
2031;SDS011;27625;50.422;7.944;2023-10-09T10:50:02;5.23;;;3.23;;
2031;SDS011;27625;50.422;7.944;2023-10-09T10:53:07;5.83;;;3.07;;
2031;SDS011;27625;50.422;7.944;2023-10-09T10:55:39;8.70;;;3.53;;
2031;SDS011;27625;50.422;7.944;2023-10-09T10:58:23;7.57;;;3.50;;
2031;SDS011;27625;50.422;7.944;2023-10-09T11:00:53;6.40;;;3.40;;
2031;SDS011;27625;50.422;7.944;2023-10-09T11:03:37;4.90;;;2.90;;
2031;SDS011;27625;50.422;7.944;2023-10-09T11:06:24;6.70;;;3.53;;
2031;SDS011;27625;50.422;7.944;2023-10-09T11:09:00;6.13;;;3.47;;
2031;SDS011;27625;50.422;7.944;2023-10-09T11:11:34;7.13;;;4.10;;
2031;SDS011;27625;50.422;7.944;2023-10-09T11:14:11;7.00;;;3.10;;
2031;SDS011;27625;50.422;7.944;2023-10-09T11:16:40;8.57;;;3.60;;
2031;SDS011;27625;50.422;7.944;2023-10-09T11:19:13;9.50;;;4.33;;
2031;SDS011;27625;50.422;7.944;2023-10-09T11:21:54;5.20;;;3.10;;
2031;SDS011;27625;50.422;7.944;2023-10-09T11:24:45;6.20;;;3.30;;
2031;SDS011;27625;50.422;7.944;2023-10-09T11:27:25;5.20;;;3.20;;
2031;SDS011;27625;50.422;7.944;2023-10-09T11:29:59;5.30;;;3.40;;
2031;SDS011;27625;50.422;7.944;2023-10-09T11:32:46;7.47;;;3.23;;
2031;SDS011;27625;50.422;7.944;2023-10-09T11:35:16;8.40;;;3.90;;
2031;SDS011;27625;50.422;7.944;2023-10-09T11:37:57;5.33;;;3.30;;
2031;SDS011;27625;50.422;7.944;2023-10-09T11:40:29;6.93;;;3.47;;
2031;SDS011;27625;50.422;7.944;2023-10-09T11:43:13;5.93;;;3.23;;
2031;SDS011;27625;50.422;7.944;2023-10-09T11:45:41;6.40;;;3.70;;
2031;SDS011;27625;50.422;7.944;2023-10-09T11:48:20;6.30;;;2.80;;
2031;SDS011;27625;50.422;7.944;2023-10-09T11:50:58;6.03;;;3.27;;
2031;SDS011;27625;50.422;7.944;2023-10-09T11:53:44;4.60;;;2.97;;
2031;SDS011;27625;50.422;7.944;2023-10-09T11:56:12;4.90;;;2.90;;
2031;SDS011;27625;50.422;7.944;2023-10-09T11:58:43;7.10;;;3.53;;
2031;SDS011;27625;50.422;7.944;2023-10-09T12:01:13;5.70;;;4.07;;
2031;SDS011;27625;50.422;7.944;2023-10-09T12:03:44;4.67;;;2.67;;
2031;SDS011;27625;50.422;7.944;2023-10-09T12:06:15;5.80;;;3.30;;
2031;SDS011;27625;50.422;7.944;2023-10-09T12:08:46;7.60;;;3.13;;
2031;SDS011;27625;50.422;7.944;2023-10-09T12:11:13;7.10;;;3.40;;
2031;SDS011;27625;50.422;7.944;2023-10-09T12:13:47;6.03;;;3.40;;
2031;SDS011;27625;50.422;7.944;2023-10-09T12:16:15;7.53;;;3.67;;
2031;SDS011;27625;50.422;7.944;2023-10-09T12:18:43;5.03;;;2.90;;
2031;SDS011;27625;50.422;7.944;2023-10-09T12:21:19;6.53;;;3.70;;
2031;SDS011;27625;50.422;7.944;2023-10-09T12:23:49;5.23;;;3.43;;
2031;SDS011;27625;50.422;7.944;2023-10-09T12:26:15;9.70;;;4.20;;
2031;SDS011;27625;50.422;7.944;2023-10-09T12:28:43;6.63;;;3.70;;
2031;SDS011;27625;50.422;7.944;2023-10-09T12:31:13;5.80;;;3.17;;
2031;SDS011;27625;50.422;7.944;2023-10-09T12:33:44;5.50;;;3.13;;
2031;SDS011;27625;50.422;7.944;2023-10-09T12:36:19;5.37;;;3.23;;
2031;SDS011;27625;50.422;7.944;2023-10-09T12:38:46;6.20;;;3.17;;
2031;SDS011;27625;50.422;7.944;2023-10-09T12:41:21;6.17;;;3.10;;
2031;SDS011;27625;50.422;7.944;2023-10-09T12:43:53;8.20;;;3.40;;
2031;SDS011;27625;50.422;7.944;2023-10-09T12:46:21;8.00;;;4.00;;
2031;SDS011;27625;50.422;7.944;2023-10-09T12:48:52;6.57;;;3.00;;
2031;SDS011;27625;50.422;7.944;2023-10-09T12:51:21;6.20;;;3.10;;
2031;SDS011;27625;50.422;7.944;2023-10-09T12:53:52;7.43;;;3.77;;
2031;SDS011;27625;50.422;7.944;2023-10-09T12:56:30;9.20;;;5.60;;
2031;SDS011;27625;50.422;7.944;2023-10-09T12:59:02;6.77;;;3.70;;
2031;SDS011;27625;50.422;7.944;2023-10-09T13:01:30;6.23;;;3.93;;
2031;SDS011;27625;50.422;7.944;2023-10-09T13:03:59;7.87;;;3.80;;
2031;SDS011;27625;50.422;7.944;2023-10-09T13:06:26;7.00;;;3.10;;
2031;SDS011;27625;50.422;7.944;2023-10-09T13:08:53;11.33;;;4.73;;
2031;SDS011;27625;50.422;7.944;2023-10-09T13:11:24;5.47;;;3.43;;
2031;SDS011;27625;50.422;7.944;2023-10-09T13:13:52;4.80;;;2.70;;
2031;SDS011;27625;50.422;7.944;2023-10-09T13:16:19;5.03;;;2.93;;
2031;SDS011;27625;50.422;7.944;2023-10-09T13:18:49;6.53;;;3.80;;
2031;SDS011;27625;50.422;7.944;2023-10-09T13:21:19;5.07;;;2.77;;
2031;SDS011;27625;50.422;7.944;2023-10-09T13:23:46;8.33;;;3.93;;
2031;SDS011;27625;50.422;7.944;2023-10-09T13:26:15;7.37;;;3.37;;
2031;SDS011;27625;50.422;7.944;2023-10-09T13:28:50;7.00;;;3.20;;
2031;SDS011;27625;50.422;7.944;2023-10-09T13:31:19;7.53;;;3.57;;
2031;SDS011;27625;50.422;7.944;2023-10-09T13:33:48;4.73;;;3.00;;
2031;SDS011;27625;50.422;7.944;2023-10-09T13:36:22;6.80;;;3.27;;
2031;SDS011;27625;50.422;7.944;2023-10-09T13:38:58;5.93;;;3.40;;
2031;SDS011;27625;50.422;7.944;2023-10-09T13:41:27;7.30;;;3.50;;
2031;SDS011;27625;50.422;7.944;2023-10-09T13:43:54;5.23;;;3.23;;
2031;SDS011;27625;50.422;7.944;2023-10-09T13:46:22;6.63;;;3.00;;
2031;SDS011;27625;50.422;7.944;2023-10-09T13:48:50;6.67;;;3.47;;
2031;SDS011;27625;50.422;7.944;2023-10-09T13:51:18;5.60;;;3.57;;
2031;SDS011;27625;50.422;7.944;2023-10-09T13:53:52;5.73;;;3.37;;
2031;SDS011;27625;50.422;7.944;2023-10-09T13:56:22;6.43;;;3.03;;
2031;SDS011;27625;50.422;7.944;2023-10-09T13:58:54;6.53;;;3.20;;
2031;SDS011;27625;50.422;7.944;2023-10-09T14:01:25;6.37;;;3.20;;
2031;SDS011;27625;50.422;7.944;2023-10-09T14:03:58;6.80;;;3.50;;
2031;SDS011;27625;50.422;7.944;2023-10-09T14:06:25;5.20;;;2.90;;
2031;SDS011;27625;50.422;7.944;2023-10-09T14:09:02;7.20;;;3.43;;
2031;SDS011;27625;50.422;7.944;2023-10-09T14:11:32;5.70;;;3.20;;
2031;SDS011;27625;50.422;7.944;2023-10-09T14:14:03;6.87;;;3.43;;
2031;SDS011;27625;50.422;7.944;2023-10-09T14:16:35;6.63;;;4.00;;
2031;SDS011;27625;50.422;7.944;2023-10-09T14:19:02;6.90;;;4.00;;
2031;SDS011;27625;50.422;7.944;2023-10-09T14:21:32;10.03;;;5.13;;
2031;SDS011;27625;50.422;7.944;2023-10-09T14:24:04;11.30;;;4.70;;
2031;SDS011;27625;50.422;7.944;2023-10-09T14:26:40;6.70;;;4.20;;
2031;SDS011;27625;50.422;7.944;2023-10-09T14:29:14;5.93;;;3.13;;
2031;SDS011;27625;50.422;7.944;2023-10-09T14:31:42;7.00;;;3.80;;
2031;SDS011;27625;50.422;7.944;2023-10-09T14:34:09;6.30;;;3.80;;
2031;SDS011;27625;50.422;7.944;2023-10-09T14:36:36;10.20;;;3.97;;
2031;SDS011;27625;50.422;7.944;2023-10-09T14:39:10;5.70;;;3.87;;
2031;SDS011;27625;50.422;7.944;2023-10-09T14:41:38;7.10;;;3.70;;
2031;SDS011;27625;50.422;7.944;2023-10-09T14:44:06;7.07;;;3.27;;
2031;SDS011;27625;50.422;7.944;2023-10-09T14:46:41;5.40;;;3.43;;
2031;SDS011;27625;50.422;7.944;2023-10-09T14:49:08;9.63;;;3.40;;
2031;SDS011;27625;50.422;7.944;2023-10-09T14:51:39;5.43;;;3.37;;
2031;SDS011;27625;50.422;7.944;2023-10-09T14:54:13;6.77;;;3.97;;
2031;SDS011;27625;50.422;7.944;2023-10-09T14:56:43;6.10;;;3.50;;
2031;SDS011;27625;50.422;7.944;2023-10-09T14:59:12;6.13;;;3.50;;
2031;SDS011;27625;50.422;7.944;2023-10-09T15:01:41;7.10;;;3.87;;
2031;SDS011;27625;50.422;7.944;2023-10-09T15:04:08;5.90;;;3.37;;
2031;SDS011;27625;50.422;7.944;2023-10-09T15:06:45;6.83;;;3.27;;
2031;SDS011;27625;50.422;7.944;2023-10-09T15:09:16;6.23;;;3.77;;
2031;SDS011;27625;50.422;7.944;2023-10-09T15:11:50;6.20;;;4.03;;
2031;SDS011;27625;50.422;7.944;2023-10-09T15:14:17;7.80;;;3.40;;
2031;SDS011;27625;50.422;7.944;2023-10-09T15:16:44;7.00;;;3.43;;
2031;SDS011;27625;50.422;7.944;2023-10-09T15:19:11;8.10;;;3.80;;
2031;SDS011;27625;50.422;7.944;2023-10-09T15:21:39;8.90;;;3.93;;
2031;SDS011;27625;50.422;7.944;2023-10-09T15:24:09;6.20;;;3.90;;
2031;SDS011;27625;50.422;7.944;2023-10-09T15:26:39;6.73;;;4.20;;
2031;SDS011;27625;50.422;7.944;2023-10-09T15:29:07;7.83;;;4.00;;
2031;SDS011;27625;50.422;7.944;2023-10-09T15:31:36;6.77;;;4.33;;
2031;SDS011;27625;50.422;7.944;2023-10-09T15:34:05;7.37;;;4.03;;
2031;SDS011;27625;50.422;7.944;2023-10-09T15:36:36;6.43;;;3.50;;
2031;SDS011;27625;50.422;7.944;2023-10-09T15:39:02;6.87;;;3.90;;
2031;SDS011;27625;50.422;7.944;2023-10-09T15:41:33;6.73;;;4.17;;
2031;SDS011;27625;50.422;7.944;2023-10-09T15:44:04;4.70;;;2.97;;
2031;SDS011;27625;50.422;7.944;2023-10-09T15:46:32;7.13;;;4.27;;
2031;SDS011;27625;50.422;7.944;2023-10-09T15:49:00;5.83;;;3.47;;
2031;SDS011;27625;50.422;7.944;2023-10-09T15:51:27;6.00;;;3.50;;
2031;SDS011;27625;50.422;7.944;2023-10-09T15:53:54;8.00;;;4.80;;
2031;SDS011;27625;50.422;7.944;2023-10-09T15:56:31;6.83;;;3.87;;